This is the latest recevied weather packets stored in our database for station/object KM5VY. If no packets are shown the sender has not sent any weather packets the latest 10 day(s).
| Time | Temp. | Humidity | Pressure | Rain* | Wind** | Luminosity | Snow |
|---|---|---|---|---|---|---|---|
| 1777746694 | 15° C | 43% | 1024 hPa | 0 mm | - | - | - |
| 1777746093 | 15° C | 44% | 1024 hPa | 0 mm | - | - | - |
| 1777745492 | 14.44° C | 45% | 1024 hPa | 0 mm | - | - | - |
| 1777744892 | 13.89° C | 46% | 1024.4 hPa | 0 mm | - | - | - |
| 1777744291 | 13.33° C | 47% | 1024.4 hPa | 0 mm | - | - | - |
| 1777743689 | 12.78° C | 48% | 1024.7 hPa | 0 mm | - | - | - |
| 1777743089 | 12.78° C | 51% | 1024.7 hPa | 0 mm | - | - | - |
| 1777742487 | 12.22° C | 54% | 1024.7 hPa | 0 mm | - | - | - |
| 1777742088 | 11.67° C | 55% | 1024.7 hPa | 0 mm | - | - | - |
| 1777741886 | 11.67° C | 55% | 1024.7 hPa | 0 mm | - | - | - |
| 1777741285 | 11.11° C | 57% | 1024.7 hPa | 0 mm | - | - | - |
| 1777740084 | 10.56° C | 60% | 1024.7 hPa | 0 mm | - | - | - |
| 1777739483 | 10° C | 61% | 1024.7 hPa | 0 mm | - | - | - |
| 1777738881 | 9.44° C | 62% | 1024.4 hPa | 0 mm | - | - | - |
| 1777738484 | 9.44° C | 65% | 1024.4 hPa | 0 mm | - | - | - |
| 1777738280 | 9.44° C | 65% | 1024.4 hPa | 0 mm | - | - | - |
| 1777737679 | 8.33° C | 67% | 1024.4 hPa | 0 mm | - | - | - |
| 1777737078 | 7.78° C | 69% | 1024.4 hPa | 0 mm | - | - | - |
| 1777735275 | 5.56° C | 76% | 1024.4 hPa | 0 mm | - | - | - |
| 1777734675 | 5° C | 76% | 1024 hPa | 0 mm | - | - | - |
| 1777734074 | 4.44° C | 76% | 1024 hPa | 0 mm | - | - | - |
| 1777732871 | 4.44° C | 78% | 1024 hPa | 0 mm | - | - | - |
| 1777732270 | 4.44° C | 78% | 1024 hPa | 0 mm | - | - | - |
| 1777730467 | 3.33° C | 79% | 1024.4 hPa | 0 mm | - | - | - |
| 1777728664 | 2.78° C | 77% | 1024 hPa | 0 mm | - | - | - |
* Rain latest hour (hover to see other rain measurements)
** Current wind speed in m/s (hover to see current wind gust speed)